Time;durP1;ratioP1;P1;durP2;ratioP2;P2;SDS_P1;SDS_P2;PMS_P1;PMS_P2;Temp;Humidity;BMP_temperature;BMP_pressure;BME280_temperature;BME280_humidity;BME280_pressure;Samples;Min_cycle;Max_cycle;Signal;HPM_P1;HPM_P2
2022/01/16 00:04:06;;;;;;;47.83;24.35;;;2.70;99.90;;;;;;5012061;28;20479;-76
2022/01/16 00:06:36;;;;;;;50.90;25.42;;;2.00;99.90;;;;;;5010731;28;20034;-76
2022/01/16 00:09:02;;;;;;;50.55;26.58;;;1.30;99.90;;;;;;5011631;28;20042;-76
2022/01/16 00:11:28;;;;;;;54.78;26.55;;;1.50;99.90;;;;;;5012412;28;20033;-76
2022/01/16 00:13:54;;;;;;;60.00;27.88;;;1.40;99.90;;;;;;5012678;28;20030;-76
2022/01/16 00:16:20;;;;;;;60.00;28.88;;;2.40;99.90;;;;;;5014347;28;20033;-76
2022/01/16 00:18:49;;;;;;;67.55;30.98;;;1.30;99.90;;;;;;5013434;28;20387;-76
2022/01/16 00:21:17;;;;;;;67.00;27.92;;;1.20;99.90;;;;;;5011474;28;20022;-74
2022/01/16 00:23:43;;;;;;;56.85;25.05;;;1.20;99.90;;;;;;5011896;28;20094;-75
2022/01/16 00:26:08;;;;;;;71.72;27.00;;;1.10;99.90;;;;;;5012109;28;20479;-76
2022/01/16 00:28:35;;;;;;;74.85;30.15;;;1.10;99.90;;;;;;5011491;28;20434;-75
2022/01/16 00:31:00;;;;;;;68.57;29.23;;;1.10;99.90;;;;;;5012071;28;20026;-76
2022/01/16 00:33:26;;;;;;;70.68;28.23;;;1.20;99.90;;;;;;5011917;28;20501;-76
2022/01/16 00:35:52;;;;;;;64.82;25.60;;;2.00;99.90;;;;;;5011383;28;20030;-75
2022/01/16 00:38:18;;;;;;;67.90;26.63;;;0.90;99.90;;;;;;5011905;28;20537;-76
2022/01/16 00:40:43;;;;;;;61.88;23.92;;;1.00;99.90;;;;;;5009934;28;20038;-75
2022/01/16 00:43:09;;;;;;;67.45;26.65;;;0.80;99.90;;;;;;5011928;28;20029;-76
2022/01/16 00:45:35;;;;;;;71.03;25.33;;;0.90;99.90;;;;;;5011664;28;20041;-76
2022/01/16 00:48:02;;;;;;;63.17;23.50;;;0.90;99.90;;;;;;5011813;28;20038;-76
2022/01/16 00:50:28;;;;;;;60.88;24.10;;;0.90;99.90;;;;;;5010845;28;20033;-76
2022/01/16 00:52:54;;;;;;;63.28;26.00;;;0.80;99.90;;;;;;5011895;28;20026;-76
2022/01/16 00:55:20;;;;;;;64.05;24.70;;;1.10;99.90;;;;;;5011154;28;20022;-76
2022/01/16 00:57:45;;;;;;;52.75;19.70;;;0.90;99.90;;;;;;5011850;28;20033;-76
2022/01/16 01:00:11;;;;;;;53.47;21.45;;;0.90;99.90;;;;;;5009979;28;20453;-76
2022/01/16 01:02:37;;;;;;;57.42;22.80;;;0.70;99.90;;;;;;5011837;28;20045;-76
2022/01/16 01:05:03;;;;;;;59.72;24.98;;;1.00;99.90;;;;;;5008572;28;20056;-75
2022/01/16 01:07:29;;;;;;;59.58;24.85;;;0.70;99.90;;;;;;5011539;28;20111;-75
2022/01/16 01:09:54;;;;;;;56.85;25.27;;;0.80;99.90;;;;;;5011079;28;20022;-75
2022/01/16 01:12:28;;;;;;;60.67;24.67;;;0.70;99.90;;;;;;5011892;28;20483;-76
2022/01/16 01:15:08;;;;;;;58.38;22.98;;;0.70;99.90;;;;;;5011243;28;20022;-76
2022/01/16 01:17:42;;;;;;;57.55;22.48;;;0.70;99.90;;;;;;5011690;28;20026;-75
2022/01/16 01:20:09;;;;;;;53.47;22.20;;;0.90;99.90;;;;;;5009492;28;20053;-75
2022/01/16 01:22:34;;;;;;;65.30;25.35;;;0.70;99.90;;;;;;5010380;28;20123;-76
2022/01/16 01:25:00;;;;;;;60.78;25.48;;;-1.00;99.90;;;;;;5010112;28;20085;-76
2022/01/16 01:27:30;;;;;;;62.45;22.63;;;1.30;99.90;;;;;;5011806;28;20034;-76
2022/01/16 01:30:02;;;;;;;55.97;21.33;;;0.70;99.90;;;;;;5009667;28;20030;-76
2022/01/16 01:32:30;;;;;;;59.05;22.10;;;0.60;99.90;;;;;;5014958;28;20105;-76
2022/01/16 01:34:55;;;;;;;57.10;22.20;;;0.60;99.90;;;;;;5004747;28;20100;-76
2022/01/16 01:37:21;;;;;;;48.92;19.50;;;0.60;99.90;;;;;;5013753;28;20050;-76
2022/01/16 01:39:47;;;;;;;50.55;20.50;;;0.50;99.90;;;;;;5014691;28;20402;-76
2022/01/16 01:42:14;;;;;;;50.45;21.15;;;0.50;99.90;;;;;;5015225;28;20034;-76
2022/01/16 01:52:56;;;;;;;58.63;20.55;;;0.50;99.90;;;;;;5038615;23;20112;-80
2022/01/16 01:55:23;;;;;;;50.47;20.70;;;1.50;99.90;;;;;;5036947;28;20029;-78
2022/01/16 01:57:49;;;;;;;58.30;19.45;;;0.50;99.90;;;;;;5038014;28;20017;-80
2022/01/16 02:00:17;;;;;;;47.70;19.42;;;-1.40;99.90;;;;;;5036291;28;20481;-79
2022/01/16 02:05:22;;;;;;;55.70;19.98;;;0.30;99.90;;;;;;5022810;28;20034;-78
2022/01/16 02:07:48;;;;;;;44.85;18.17;;;0.40;99.90;;;;;;5022068;28;20068;-79
2022/01/16 02:10:14;;;;;;;49.05;19.45;;;0.30;99.90;;;;;;5016748;28;20417;-80
2022/01/16 02:12:43;;;;;;;47.15;17.95;;;0.30;99.90;;;;;;5017493;28;20037;-79
2022/01/16 02:32:02;;;;;;;51.28;19.00;;;0.00;99.90;;;;;;5018270;28;20104;-80
2022/01/16 02:34:34;;;;;;;44.25;18.05;;;0.00;99.90;;;;;;5017530;28;20026;-79
2022/01/16 02:37:04;;;;;;;42.88;17.10;;;-0.10;99.90;;;;;;5024543;28;20053;-78
2022/01/16 02:39:34;;;;;;;41.30;16.35;;;0.50;99.90;;;;;;5028561;28;20041;-79
2022/01/16 02:42:00;;;;;;;44.85;17.50;;;-0.10;99.90;;;;;;5017301;28;20021;-79
2022/01/16 02:46:52;;;;;;;54.88;19.45;;;0.00;99.90;;;;;;5029828;28;20036;-78
2022/01/16 02:49:21;;;;;;;52.63;20.20;;;-0.20;99.90;;;;;;5026949;28;20061;-79
2022/01/16 02:51:48;;;;;;;42.70;18.45;;;-0.20;99.90;;;;;;5016518;28;20498;-80
2022/01/16 02:54:14;;;;;;;43.17;17.52;;;-0.10;99.90;;;;;;5016886;28;20164;-79
2022/01/16 02:56:40;;;;;;;40.65;19.02;;;-0.20;99.90;;;;;;5016395;28;20049;-79
2022/01/16 02:59:09;;;;;;;41.72;18.52;;;-0.20;99.90;;;;;;5016311;28;20034;-80
2022/01/16 03:01:35;;;;;;;38.50;18.17;;;-0.20;99.90;;;;;;5015246;28;20029;-80
2022/01/16 03:04:01;;;;;;;45.42;18.17;;;-0.30;99.90;;;;;;5014126;28;20117;-79
2022/01/16 03:06:27;;;;;;;44.47;17.98;;;-0.30;99.90;;;;;;5016305;28;20038;-80
2022/01/16 03:08:53;;;;;;;39.50;16.55;;;-0.50;99.90;;;;;;5015780;28;20626;-80
2022/01/16 03:11:29;;;;;;;39.25;17.65;;;-0.30;99.90;;;;;;5016308;28;20049;-79
2022/01/16 03:13:54;;;;;;;36.65;16.02;;;-0.20;99.90;;;;;;5015744;28;20099;-79
2022/01/16 03:16:22;;;;;;;37.90;17.38;;;-0.30;99.90;;;;;;5015966;28;20430;-80
2022/01/16 03:24:17;;;;;;;41.40;17.15;;;1.70;99.90;;;;;;5015552;28;20029;-79
2022/01/16 03:26:43;;;;;;;34.03;15.40;;;-0.40;99.90;;;;;;5016668;28;20026;-79
2022/01/16 03:29:09;;;;;;;36.22;16.48;;;-0.50;99.90;;;;;;5015622;28;20040;-79
2022/01/16 03:31:35;;;;;;;40.65;17.70;;;-0.50;99.90;;;;;;5016641;28;20467;-78
2022/01/16 03:34:00;;;;;;;39.63;16.67;;;-0.50;99.90;;;;;;5015763;28;20026;-80
2022/01/16 03:36:27;;;;;;;43.38;18.23;;;-0.60;99.90;;;;;;5015606;28;20033;-79
2022/01/16 03:38:52;;;;;;;52.30;19.17;;;-0.60;99.90;;;;;;5014328;28;20026;-80
2022/01/16 03:41:18;;;;;;;45.92;19.23;;;1.80;99.90;;;;;;5015916;28;20053;-80
2022/01/16 03:43:44;;;;;;;41.75;16.85;;;-0.50;99.90;;;;;;5015012;28;20080;-79
2022/01/16 03:46:09;;;;;;;46.08;19.02;;;-0.40;99.90;;;;;;5015710;28;20104;-79
2022/01/16 03:48:35;;;;;;;38.38;17.52;;;-0.60;99.90;;;;;;5016308;28;20056;-80
2022/01/16 03:51:01;;;;;;;49.38;18.70;;;-0.60;99.90;;;;;;5016252;28;20145;-79
2022/01/16 03:53:26;;;;;;;42.33;17.55;;;-0.60;99.90;;;;;;5015486;28;20038;-79
2022/01/16 03:55:52;;;;;;;46.42;20.73;;;-0.70;99.90;;;;;;5015160;28;20037;-79
2022/01/16 03:58:18;;;;;;;53.75;21.88;;;-0.60;99.90;;;;;;5015446;28;20033;-79
2022/01/16 04:00:44;;;;;;;54.40;20.80;;;-0.80;99.90;;;;;;5013659;28;20038;-78
2022/01/16 04:03:11;;;;;;;54.30;21.23;;;-0.70;99.90;;;;;;5014443;28;20052;-78
2022/01/16 04:05:37;;;;;;;60.80;20.45;;;-0.80;99.90;;;;;;5015015;28;20040;-79
2022/01/16 04:08:02;;;;;;;66.70;21.75;;;-0.80;99.90;;;;;;5014291;28;20124;-79
2022/01/16 04:10:29;;;;;;;59.28;19.60;;;-0.80;99.90;;;;;;5013922;28;20065;-79
2022/01/16 04:12:54;;;;;;;61.67;21.90;;;-0.90;99.90;;;;;;5015029;28;20034;-79
2022/01/16 04:17:46;;;;;;;62.47;21.70;;;-0.80;99.90;;;;;;5016869;28;20026;-80
2022/01/16 04:20:16;;;;;;;66.60;23.00;;;-1.00;99.90;;;;;;5016334;28;20064;-79
2022/01/16 04:22:43;;;;;;;71.63;24.08;;;-0.90;99.90;;;;;;5015938;28;20053;-79
2022/01/16 04:25:08;;;;;;;79.10;24.95;;;-0.90;99.90;;;;;;5016050;28;20073;-78
2022/01/16 04:27:34;;;;;;;79.47;24.05;;;0.80;99.90;;;;;;5013183;28;20042;-80
2022/01/16 04:30:00;;;;;;;63.08;22.05;;;-0.90;99.90;;;;;;5013163;28;20038;-79
2022/01/16 04:32:25;;;;;;;77.47;24.77;;;-0.90;99.90;;;;;;5015383;28;20022;-80
2022/01/16 04:34:51;;;;;;;79.05;23.50;;;-0.80;99.90;;;;;;5013350;28;20029;-80
2022/01/16 04:37:17;;;;;;;62.13;21.88;;;-0.80;99.90;;;;;;5014711;28;20033;-78
2022/01/16 04:39:49;;;;;;;86.22;24.95;;;-1.00;99.90;;;;;;5013182;28;20057;-80
2022/01/16 04:44:59;;;;;;;69.40;22.40;;;-1.00;99.90;;;;;;5015754;28;19956;-79
2022/01/16 04:47:25;;;;;;;86.60;24.60;;;-1.00;99.90;;;;;;5015288;28;20060;-80
2022/01/16 04:49:50;;;;;;;71.32;23.35;;;-1.10;99.90;;;;;;5013121;28;20500;-80
2022/01/16 04:52:16;;;;;;;84.75;25.33;;;-1.00;99.90;;;;;;5015446;28;20483;-79
2022/01/16 04:54:42;;;;;;;69.78;21.55;;;-1.00;99.90;;;;;;5012851;28;20457;-79
2022/01/16 04:57:07;;;;;;;69.20;21.13;;;-1.00;99.90;;;;;;5014223;28;20026;-78
2022/01/16 04:59:33;;;;;;;94.03;25.05;;;-1.00;99.90;;;;;;5012872;28;20081;-80
2022/01/16 05:01:59;;;;;;;68.28;23.73;;;-1.00;99.90;;;;;;5013965;28;20463;-80
2022/01/16 05:04:24;;;;;;;85.05;24.67;;;-0.90;99.90;;;;;;5013396;28;20033;-79
2022/01/16 05:06:50;;;;;;;98.13;24.23;;;-1.00;99.90;;;;;;5016819;28;20074;-79
2022/01/16 05:09:15;;;;;;;79.30;21.73;;;-0.90;99.90;;;;;;5018529;28;20022;-79
2022/01/16 05:11:41;;;;;;;94.68;25.52;;;-1.00;99.90;;;;;;5019683;28;20054;-80
2022/01/16 05:16:51;;;;;;;73.40;24.77;;;-1.00;99.90;;;;;;5018848;28;20060;-79
2022/01/16 05:19:17;;;;;;;62.33;20.77;;;-0.90;99.90;;;;;;5018808;28;20483;-78
2022/01/16 05:21:42;;;;;;;75.88;21.02;;;-0.90;99.90;;;;;;5022179;28;20022;-77
2022/01/16 05:24:10;;;;;;;74.78;21.92;;;-1.00;99.90;;;;;;5022456;28;20026;-78
2022/01/16 05:26:42;;;;;;;70.22;23.63;;;-0.90;99.90;;;;;;5020058;28;20037;-79
2022/01/16 05:29:09;;;;;;;74.75;23.73;;;-0.90;99.90;;;;;;5001935;28;20064;-79
2022/01/16 05:31:34;;;;;;;51.78;19.17;;;-1.00;99.90;;;;;;5019282;28;20033;-79
2022/01/16 05:34:00;;;;;;;45.38;16.17;;;-0.90;99.90;;;;;;5020223;28;20033;-79
2022/01/16 05:36:26;;;;;;;70.65;21.90;;;-1.00;99.90;;;;;;5018179;28;20026;-79
2022/01/16 05:38:53;;;;;;;71.47;21.67;;;-1.00;99.90;;;;;;5019239;28;20033;-79
2022/01/16 05:41:19;;;;;;;66.35;22.60;;;-0.80;99.90;;;;;;5019115;28;20018;-79
2022/01/16 05:43:49;;;;;;;53.70;20.77;;;-1.00;99.90;;;;;;5019127;28;20048;-78
2022/01/16 05:46:15;;;;;;;50.97;16.75;;;0.50;99.90;;;;;;5017652;28;20056;-78
2022/01/16 05:48:42;;;;;;;59.08;20.10;;;-0.90;99.90;;;;;;5017969;28;20103;-78
2022/01/16 05:51:08;;;;;;;42.08;17.13;;;-1.10;99.90;;;;;;5016535;28;20405;-79
2022/01/16 05:53:35;;;;;;;42.33;15.48;;;-1.00;99.90;;;;;;5018215;28;20041;-79
2022/01/16 05:56:00;;;;;;;54.05;19.27;;;-1.00;99.90;;;;;;5018620;28;20064;-79
2022/01/16 05:58:26;;;;;;;46.63;18.38;;;1.10;99.90;;;;;;5017614;28;20025;-79
2022/01/16 06:00:51;;;;;;;57.83;19.02;;;-1.10;99.90;;;;;;5018359;28;20040;-79
2022/01/16 06:03:19;;;;;;;48.72;18.83;;;-1.00;99.90;;;;;;5017946;28;20084;-79
2022/01/16 06:05:44;;;;;;;57.00;20.27;;;-0.90;99.90;;;;;;5017805;28;20037;-79
2022/01/16 06:08:12;;;;;;;47.75;18.35;;;-1.00;99.90;;;;;;5016876;28;20026;-78
2022/01/16 06:10:38;;;;;;;48.03;18.38;;;-1.00;99.90;;;;;;5017673;28;20042;-78
2022/01/16 06:13:05;;;;;;;52.33;20.27;;;-0.80;99.90;;;;;;5017822;28;20025;-79
2022/01/16 06:15:31;;;;;;;43.45;16.65;;;-0.90;99.90;;;;;;5017696;28;20468;-79
2022/01/16 06:17:57;;;;;;;48.58;18.92;;;-0.90;99.90;;;;;;5018057;28;20038;-78
2022/01/16 06:20:23;;;;;;;49.63;18.27;;;-0.90;99.90;;;;;;5016219;28;20117;-76
2022/01/16 06:22:48;;;;;;;50.33;17.90;;;-0.80;99.90;;;;;;5013413;28;20078;-77
2022/01/16 06:25:14;;;;;;;49.17;18.83;;;-1.00;99.90;;;;;;5012832;28;20034;-76
2022/01/16 06:27:41;;;;;;;48.35;19.05;;;-0.80;99.90;;;;;;5013814;28;20045;-77
2022/01/16 06:30:09;;;;;;;52.83;19.00;;;-0.90;99.90;;;;;;5013771;28;20034;-77
2022/01/16 06:32:35;;;;;;;54.05;18.67;;;-0.90;99.90;;;;;;5016903;28;20052;-77
2022/01/16 06:35:01;;;;;;;49.58;19.20;;;-0.60;99.90;;;;;;5013377;28;20454;-77
2022/01/16 06:37:27;;;;;;;46.78;19.50;;;-0.80;99.90;;;;;;5015385;28;20065;-77
2022/01/16 06:39:52;;;;;;;48.65;19.27;;;-0.80;99.90;;;;;;5016439;28;20034;-77
2022/01/16 06:42:18;;;;;;;50.20;21.10;;;-0.80;99.90;;;;;;5017588;28;20105;-77
2022/01/16 06:44:44;;;;;;;46.55;19.88;;;-0.80;99.90;;;;;;5014091;28;20735;-79
2022/01/16 06:47:09;;;;;;;41.65;17.23;;;-0.70;99.90;;;;;;5013146;28;20030;-76
2022/01/16 06:49:35;;;;;;;45.70;18.73;;;-0.70;99.90;;;;;;5014930;28;20406;-77
2022/01/16 06:52:01;;;;;;;45.20;18.23;;;-0.60;99.90;;;;;;5018721;28;20042;-77
2022/01/16 06:54:27;;;;;;;40.20;18.17;;;-0.70;99.90;;;;;;5018419;28;20044;-77
2022/01/16 06:56:52;;;;;;;35.42;15.18;;;-0.70;99.90;;;;;;5013529;28;20038;-77
2022/01/16 06:59:18;;;;;;;36.08;16.58;;;-0.60;99.90;;;;;;5014432;28;20390;-77
2022/01/16 07:01:44;;;;;;;37.60;17.13;;;-0.60;99.90;;;;;;5015260;28;20196;-77
2022/01/16 07:04:09;;;;;;;34.00;14.27;;;-0.70;99.90;;;;;;5014444;28;20028;-76
2022/01/16 07:06:35;;;;;;;34.58;13.95;;;-0.70;99.90;;;;;;5014369;28;20109;-77
2022/01/16 07:09:00;;;;;;;36.85;15.70;;;-0.60;99.90;;;;;;5015252;28;20104;-76
2022/01/16 07:11:26;;;;;;;33.63;14.55;;;-0.60;99.90;;;;;;5012713;28;20100;-78
2022/01/16 07:13:52;;;;;;;39.42;17.20;;;-0.60;99.90;;;;;;5011914;28;20037;-76
2022/01/16 07:16:17;;;;;;;35.38;16.42;;;-0.60;99.90;;;;;;5011958;28;20022;-77
2022/01/16 07:18:43;;;;;;;41.03;17.88;;;-0.80;99.90;;;;;;5012832;28;20057;-76
2022/01/16 07:21:13;;;;;;;41.45;19.42;;;-0.60;99.90;;;;;;5012414;28;20041;-77
2022/01/16 07:23:46;;;;;;;45.88;18.50;;;-0.70;99.90;;;;;;5011184;28;20164;-78
2022/01/16 07:26:16;;;;;;;45.55;19.15;;;-0.60;99.90;;;;;;5011326;28;20368;-79
2022/01/16 07:28:42;;;;;;;44.08;18.67;;;-0.60;99.90;;;;;;5009838;28;20038;-76
2022/01/16 07:31:08;;;;;;;39.25;17.90;;;-0.80;99.90;;;;;;5012447;28;20028;-76
2022/01/16 07:33:33;;;;;;;36.38;16.83;;;-0.40;99.90;;;;;;5011636;28;20026;-79
2022/01/16 07:35:59;;;;;;;43.85;19.90;;;-0.60;99.90;;;;;;5010972;28;20026;-79
2022/01/16 07:38:24;;;;;;;42.80;19.55;;;-0.50;99.90;;;;;;5010517;28;20470;-76
2022/01/16 07:40:50;;;;;;;41.60;19.27;;;-0.50;99.90;;;;;;5012213;28;20045;-76
2022/01/16 07:43:16;;;;;;;51.88;21.95;;;-0.50;99.90;;;;;;5012050;28;20065;-79
2022/01/16 07:45:42;;;;;;;51.25;21.90;;;-0.50;99.90;;;;;;5011784;28;20482;-77
2022/01/16 07:48:09;;;;;;;48.67;18.92;;;-0.30;99.90;;;;;;5012397;28;20113;-77
2022/01/16 07:50:36;;;;;;;56.30;22.45;;;-0.40;99.90;;;;;;5011422;28;20053;-77
2022/01/16 07:53:02;;;;;;;50.83;21.05;;;-0.40;99.90;;;;;;5011634;28;20113;-79
2022/01/16 07:55:28;;;;;;;48.15;20.70;;;-0.20;99.90;;;;;;5043383;23;20407;-74
2022/01/16 07:57:55;;;;;;;51.58;21.67;;;-0.40;99.90;;;;;;5072287;28;20020;-75
2022/01/16 08:00:21;;;;;;;49.90;21.83;;;-0.20;99.90;;;;;;5072000;28;20032;-75
2022/01/16 08:02:47;;;;;;;54.78;22.00;;;-0.30;99.90;;;;;;5072790;28;20127;-74
2022/01/16 08:05:15;;;;;;;55.03;22.27;;;-0.30;99.90;;;;;;5067125;28;20037;-74
2022/01/16 08:07:41;;;;;;;60.72;21.50;;;-0.30;99.90;;;;;;5054666;28;20052;-74
2022/01/16 08:10:07;;;;;;;57.20;23.33;;;-0.20;99.90;;;;;;5072102;28;20017;-75
2022/01/16 08:12:33;;;;;;;63.28;22.70;;;-0.20;99.90;;;;;;5075339;28;20022;-74
2022/01/16 08:14:59;;;;;;;57.97;24.52;;;-0.30;99.90;;;;;;5071303;28;20025;-74
2022/01/16 08:17:25;;;;;;;56.97;23.75;;;-0.20;99.90;;;;;;5061072;28;20031;-74
2022/01/16 08:19:51;;;;;;;60.33;23.42;;;-0.20;99.90;;;;;;5059776;28;20020;-73
2022/01/16 08:22:16;;;;;;;51.45;23.27;;;-0.20;99.90;;;;;;5058477;28;20033;-74
2022/01/16 08:24:42;;;;;;;59.30;23.27;;;-0.20;99.90;;;;;;5062714;28;20056;-74
2022/01/16 08:27:08;;;;;;;57.33;23.55;;;-0.30;99.90;;;;;;5064845;28;20029;-74
2022/01/16 08:29:33;;;;;;;57.53;21.88;;;-0.20;99.90;;;;;;5052366;28;20021;-74
2022/01/16 08:31:59;;;;;;;60.75;24.10;;;-0.20;99.90;;;;;;5050889;28;20466;-74
2022/01/16 08:34:25;;;;;;;69.43;27.67;;;-0.20;99.90;;;;;;5050538;28;20029;-75
2022/01/16 08:36:50;;;;;;;67.00;26.10;;;-0.20;99.90;;;;;;5050071;28;20485;-74
2022/01/16 08:39:16;;;;;;;68.57;26.88;;;-0.10;99.90;;;;;;5051619;28;20021;-74
2022/01/16 08:41:41;;;;;;;70.55;26.58;;;-0.10;99.90;;;;;;5054211;28;20052;-74
2022/01/16 08:44:07;;;;;;;74.40;28.90;;;-0.20;99.90;;;;;;5059496;28;20025;-74
2022/01/16 08:46:33;;;;;;;67.25;28.75;;;-0.20;99.90;;;;;;5056080;28;20025;-74
2022/01/16 08:49:00;;;;;;;63.58;26.67;;;0.00;99.90;;;;;;5055215;28;20055;-74
2022/01/16 08:51:26;;;;;;;61.17;24.80;;;0.00;99.90;;;;;;5055860;28;20028;-74
2022/01/16 08:53:51;;;;;;;55.17;23.08;;;0.10;99.90;;;;;;5055733;28;20397;-74
2022/01/16 08:56:17;;;;;;;63.08;25.45;;;0.10;99.90;;;;;;5055118;28;20078;-74
2022/01/16 08:58:43;;;;;;;63.83;26.02;;;0.10;99.90;;;;;;5055111;28;20035;-74
2022/01/16 09:01:08;;;;;;;57.38;24.33;;;0.10;99.90;;;;;;5054420;28;20025;-74
2022/01/16 09:03:34;;;;;;;60.47;25.00;;;0.20;99.90;;;;;;5055636;28;20044;-74
2022/01/16 09:06:00;;;;;;;65.13;25.85;;;0.40;99.90;;;;;;5053974;28;20032;-75
2022/01/16 09:08:26;;;;;;;65.35;25.55;;;0.20;99.90;;;;;;5053521;28;20086;-74
2022/01/16 09:10:51;;;;;;;62.17;23.50;;;0.20;99.90;;;;;;5054163;28;20033;-74
2022/01/16 09:13:17;;;;;;;53.17;23.02;;;0.20;99.90;;;;;;5055039;28;20485;-75
2022/01/16 09:15:49;;;;;;;61.22;26.27;;;1.30;99.90;;;;;;5055043;28;20029;-74
2022/01/16 09:18:15;;;;;;;57.22;25.00;;;0.10;99.90;;;;;;5055404;28;20527;-74
2022/01/16 09:20:42;;;;;;;65.03;26.38;;;0.30;99.90;;;;;;5053360;28;20036;-75
2022/01/16 09:23:09;;;;;;;55.53;26.10;;;0.40;99.90;;;;;;5054702;28;20029;-74
2022/01/16 09:25:35;;;;;;;61.97;27.25;;;0.40;99.90;;;;;;5054730;28;20413;-74
2022/01/16 09:28:01;;;;;;;58.33;23.75;;;0.40;99.90;;;;;;5055053;28;20121;-74
2022/01/16 09:30:27;;;;;;;48.85;23.63;;;0.50;99.90;;;;;;5054485;28;20024;-74
2022/01/16 09:32:54;;;;;;;51.22;23.60;;;0.60;99.90;;;;;;5055094;28;20025;-74
2022/01/16 09:35:20;;;;;;;56.72;26.00;;;0.60;99.90;;;;;;5054692;28;20043;-75
2022/01/16 09:37:46;;;;;;;58.35;25.95;;;0.60;99.90;;;;;;5053372;28;20025;-74
2022/01/16 09:40:15;;;;;;;48.47;25.35;;;0.70;99.90;;;;;;5054141;28;20037;-75
2022/01/16 09:42:41;;;;;;;46.83;23.90;;;0.60;99.90;;;;;;5054799;28;20036;-74
2022/01/16 09:45:10;;;;;;;50.00;24.17;;;0.80;99.90;;;;;;5054092;28;20029;-75
2022/01/16 09:47:36;;;;;;;48.45;25.30;;;0.80;99.90;;;;;;5054756;28;20056;-74
2022/01/16 09:50:04;;;;;;;47.80;23.17;;;0.90;99.90;;;;;;5054045;28;20017;-75
2022/01/16 09:52:35;;;;;;;52.38;24.30;;;0.90;99.90;;;;;;5053633;28;20017;-74
2022/01/16 09:55:01;;;;;;;48.45;24.15;;;0.90;99.90;;;;;;5052943;28;20029;-77
2022/01/16 09:57:27;;;;;;;50.30;24.52;;;0.80;99.90;;;;;;5053507;28;20389;-75
2022/01/16 09:59:52;;;;;;;54.65;27.05;;;0.90;99.90;;;;;;5053968;28;20029;-74
2022/01/16 10:02:18;;;;;;;46.65;24.20;;;0.90;99.90;;;;;;5054410;28;20028;-74
2022/01/16 10:04:44;;;;;;;49.70;24.65;;;1.00;99.90;;;;;;5054296;28;20131;-74
2022/01/16 10:07:15;;;;;;;53.63;25.92;;;0.90;99.90;;;;;;5053814;28;20024;-75
2022/01/16 10:09:43;;;;;;;49.78;23.73;;;1.00;99.90;;;;;;5052425;28;20127;-74
2022/01/16 10:12:15;;;;;;;41.88;21.85;;;1.00;99.90;;;;;;5052716;28;20032;-74
2022/01/16 10:14:47;;;;;;;50.78;25.08;;;1.20;99.90;;;;;;5053963;28;20021;-74
2022/01/16 10:17:16;;;;;;;47.22;23.13;;;1.00;99.90;;;;;;5054074;28;20051;-74
2022/01/16 10:19:43;;;;;;;55.88;24.10;;;1.10;99.90;;;;;;5053492;28;20500;-74
2022/01/16 10:22:11;;;;;;;45.22;22.65;;;1.10;99.90;;;;;;5053695;28;20029;-74
2022/01/16 10:24:39;;;;;;;50.20;25.55;;;1.10;99.90;;;;;;5053454;28;20021;-75
2022/01/16 10:27:08;;;;;;;48.13;23.83;;;1.20;99.90;;;;;;5052562;28;20033;-75
2022/01/16 10:29:43;;;;;;;57.00;25.67;;;1.10;99.90;;;;;;5053282;28;20053;-74
2022/01/16 10:32:11;;;;;;;55.63;26.27;;;1.40;99.90;;;;;;5053676;28;20415;-74
2022/01/16 10:34:38;;;;;;;51.90;25.30;;;2.20;99.90;;;;;;5053425;28;20031;-74
2022/01/16 10:37:22;;;;;;;59.47;26.65;;;1.30;99.90;;;;;;5053543;28;20027;-75
2022/01/16 10:40:09;;;;;;;56.65;27.80;;;1.30;99.90;;;;;;5053299;28;20088;-75
2022/01/16 10:42:36;;;;;;;59.58;25.58;;;1.10;99.90;;;;;;5053451;28;20112;-75
2022/01/16 10:45:04;;;;;;;53.80;26.92;;;1.40;99.90;;;;;;5052244;28;20083;-75
2022/01/16 10:47:40;;;;;;;62.53;28.75;;;2.20;99.90;;;;;;5053535;28;20468;-75
2022/01/16 10:50:18;;;;;;;55.10;25.25;;;1.40;99.90;;;;;;5051573;28;20119;-75
2022/01/16 10:52:56;;;;;;;53.08;22.80;;;1.50;99.90;;;;;;5053156;28;20440;-74
2022/01/16 10:55:44;;;;;;;53.83;25.17;;;2.60;99.90;;;;;;5053199;28;20099;-74
2022/01/16 10:58:29;;;;;;;60.25;24.73;;;1.80;99.90;;;;;;5052127;28;20021;-74
2022/01/16 11:01:03;;;;;;;44.35;21.95;;;1.80;99.90;;;;;;5053497;28;20099;-74
2022/01/16 11:03:39;;;;;;;50.60;22.52;;;1.90;99.90;;;;;;5035290;28;20166;-73
2022/01/16 11:06:05;;;;;;;46.70;22.30;;;1.90;99.90;;;;;;5052637;28;20513;-75
2022/01/16 11:08:32;;;;;;;46.55;21.52;;;2.70;99.90;;;;;;5051187;28;20029;-74
2022/01/16 11:10:59;;;;;;;46.72;20.40;;;2.00;99.90;;;;;;5053058;28;20024;-74
2022/01/16 11:13:34;;;;;;;55.05;24.38;;;2.20;99.90;;;;;;5053111;28;20105;-76
2022/01/16 11:16:03;;;;;;;55.47;23.35;;;2.00;99.90;;;;;;5050860;28;20053;-73
2022/01/16 11:18:30;;;;;;;47.55;22.33;;;2.00;99.90;;;;;;5052329;28;20100;-73
2022/01/16 11:23:46;;;;;;;39.85;18.48;;;2.10;99.90;;;;;;5052556;28;20027;-75
2022/01/16 11:26:13;;;;;;;55.83;24.08;;;2.20;99.90;;;;;;5052789;28;20029;-73
2022/01/16 11:28:39;;;;;;;46.70;22.60;;;2.30;99.90;;;;;;5050966;28;20090;-74
2022/01/16 11:31:12;;;;;;;47.90;22.45;;;2.90;99.90;;;;;;5052675;28;20036;-74
2022/01/16 11:33:39;;;;;;;47.45;23.20;;;2.30;99.90;;;;;;5051292;28;20074;-73
2022/01/16 11:36:06;;;;;;;45.65;20.48;;;2.40;99.90;;;;;;5051319;28;20025;-73
2022/01/16 11:38:37;;;;;;;45.58;22.60;;;2.40;99.90;;;;;;5050657;28;20033;-73
2022/01/16 11:41:15;;;;;;;40.97;18.33;;;2.70;99.90;;;;;;5052957;28;20112;-73
2022/01/16 11:43:45;;;;;;;44.00;21.00;;;2.80;99.90;;;;;;5052267;28;20029;-74
2022/01/16 11:46:17;;;;;;;32.05;16.75;;;3.00;99.90;;;;;;5052666;28;20115;-73
2022/01/16 11:48:50;;;;;;;39.73;20.10;;;2.90;99.90;;;;;;5051744;28;20125;-73
2022/01/16 11:51:35;;;;;;;38.05;19.45;;;3.00;99.90;;;;;;5052504;28;20279;-73
2022/01/16 11:54:06;;;;;;;36.00;18.75;;;4.50;99.90;;;;;;5052130;28;20103;-73
2022/01/16 11:56:40;;;;;;;39.67;19.92;;;3.20;99.90;;;;;;5052250;28;20043;-73
2022/01/16 11:59:15;;;;;;;38.85;19.08;;;3.10;99.90;;;;;;5050859;28;20668;-73
2022/01/16 12:02:00;;;;;;;36.05;17.92;;;3.30;99.90;;;;;;5051096;28;20028;-73
2022/01/16 12:04:31;;;;;;;32.47;16.50;;;3.20;99.90;;;;;;5051392;28;20021;-73
2022/01/16 12:07:05;;;;;;;42.75;19.95;;;3.10;99.90;;;;;;5051082;28;20496;-76
2022/01/16 12:12:03;;;;;;;39.25;18.48;;;3.10;99.90;;;;;;5052269;28;20085;-73
2022/01/16 12:14:55;;;;;;;33.30;16.55;;;3.10;99.90;;;;;;5052089;28;20485;-73
2022/01/16 12:20:25;;;;;;;40.58;17.77;;;3.50;99.90;;;;;;5051853;28;20029;-74
2022/01/16 12:22:53;;;;;;;37.35;18.98;;;3.10;99.90;;;;;;5034284;28;20032;-74
2022/01/16 12:25:42;;;;;;;36.67;18.42;;;3.30;99.90;;;;;;5050529;28;20037;-74
2022/01/16 12:28:11;;;;;;;42.95;20.05;;;3.30;99.90;;;;;;5051264;28;20124;-74
2022/01/16 12:31:02;;;;;;;45.67;20.63;;;3.20;99.90;;;;;;5050223;28;20021;-74
2022/01/16 12:33:51;;;;;;;41.75;19.73;;;3.20;99.90;;;;;;5050727;28;20056;-74
2022/01/16 12:36:17;;;;;;;35.45;18.42;;;3.30;99.90;;;;;;5053854;28;20059;-75
2022/01/16 12:38:49;;;;;;;33.45;17.98;;;3.20;99.90;;;;;;5055535;28;20029;-73
2022/01/16 12:41:21;;;;;;;42.90;20.30;;;3.20;99.90;;;;;;5051918;28;20382;-74
2022/01/16 12:43:51;;;;;;;33.58;17.88;;;3.10;99.90;;;;;;5051725;28;20481;-73
2022/01/16 12:46:21;;;;;;;39.28;16.92;;;4.30;99.90;;;;;;5032002;28;20033;-74
2022/01/16 12:48:51;;;;;;;42.13;19.38;;;3.10;99.90;;;;;;5031441;28;20088;-74
2022/01/16 12:51:19;;;;;;;37.53;17.77;;;3.20;99.90;;;;;;5031067;28;20113;-74
2022/01/16 12:53:48;;;;;;;34.13;17.17;;;3.00;99.90;;;;;;5032133;28;20417;-74
2022/01/16 12:56:41;;;;;;;37.25;17.92;;;3.10;99.90;;;;;;5057633;28;20061;-73
2022/01/16 12:59:30;;;;;;;33.55;16.73;;;3.00;99.90;;;;;;5059283;28;20025;-73
2022/01/16 13:02:02;;;;;;;36.22;18.23;;;3.00;99.90;;;;;;5070967;28;20017;-73
2022/01/16 13:04:30;;;;;;;37.60;19.33;;;3.00;99.90;;;;;;5055301;28;20021;-73
2022/01/16 13:07:03;;;;;;;42.13;20.88;;;3.10;99.90;;;;;;5063455;28;20335;-74
2022/01/16 13:09:30;;;;;;;38.17;19.90;;;3.00;99.90;;;;;;5062771;28;20064;-74
2022/01/16 13:12:00;;;;;;;32.72;15.75;;;3.20;99.90;;;;;;5051568;28;20021;-74
2022/01/16 13:14:38;;;;;;;38.03;18.63;;;3.20;99.90;;;;;;5051383;28;20053;-74
2022/01/16 13:17:08;;;;;;;34.60;19.50;;;3.20;99.90;;;;;;5061522;28;20029;-74
2022/01/16 13:22:17;;;;;;;38.13;18.88;;;3.30;99.90;;;;;;5050969;28;20037;-75
2022/01/16 13:24:47;;;;;;;35.08;19.67;;;3.50;99.90;;;;;;5051432;28;20128;-74
2022/01/16 13:27:29;;;;;;;39.47;19.10;;;3.30;99.90;;;;;;5062423;28;20560;-74
2022/01/16 13:29:59;;;;;;;38.67;19.77;;;3.20;99.90;;;;;;5034558;28;20129;-75
2022/01/16 13:32:29;;;;;;;37.85;19.38;;;3.20;99.90;;;;;;5049359;28;20036;-74
2022/01/16 13:34:57;;;;;;;38.63;19.40;;;3.90;99.90;;;;;;5053765;28;20024;-74